createdAt,value
2018-04-11T00:00:24.834Z,995.85
2018-04-11T00:01:05.217Z,995.87
2018-04-11T00:01:45.637Z,995.89
2018-04-11T00:02:26.061Z,995.92
2018-04-11T00:03:06.499Z,995.91
2018-04-11T00:03:46.804Z,995.93
2018-04-11T00:04:27.257Z,995.94
2018-04-11T00:05:07.712Z,995.99
2018-04-11T00:05:48.059Z,995.97
2018-04-11T00:06:29.389Z,996
2018-04-11T00:07:09.045Z,996
2018-04-11T00:07:49.418Z,996.03
2018-04-11T00:08:29.858Z,996.08
2018-04-11T00:09:10.213Z,996.1
2018-04-11T00:09:50.667Z,996.12
2018-04-11T00:10:31.111Z,996.18
2018-04-11T00:11:11.618Z,996.18
2018-04-11T00:11:52.050Z,996.23
2018-04-11T00:12:32.383Z,996.23
2018-04-11T00:13:12.858Z,996.24
2018-04-11T00:13:53.280Z,996.24
2018-04-11T00:14:33.600Z,996.3
2018-04-11T00:15:13.976Z,996.28
2018-04-11T00:15:54.420Z,996.28
2018-04-11T00:16:35.001Z,996.33
2018-04-11T00:17:15.463Z,996.28
2018-04-11T00:17:55.976Z,996.36
2018-04-11T00:18:36.457Z,996.32
2018-04-11T00:19:16.884Z,996.36
2018-04-11T00:19:57.186Z,996.31
2018-04-11T00:20:37.610Z,996.35
2018-04-11T00:21:17.963Z,996.35
2018-04-11T00:21:58.365Z,996.35
2018-04-11T00:22:38.777Z,996.41
2018-04-11T00:23:19.475Z,996.42
2018-04-11T00:23:59.943Z,996.36
2018-04-11T00:24:40.284Z,996.41
2018-04-11T00:25:20.688Z,996.43
2018-04-11T00:26:01.171Z,996.45
2018-04-11T00:26:41.511Z,996.46
2018-04-11T00:27:21.862Z,996.51
2018-04-11T00:28:02.360Z,996.53
2018-04-11T00:28:42.764Z,996.55
2018-04-11T00:29:23.201Z,996.53
2018-04-11T00:30:03.599Z,996.54
2018-04-11T00:30:44.575Z,996.55
2018-04-11T00:31:24.364Z,996.52
2018-04-11T00:32:04.845Z,996.51
2018-04-11T00:32:45.286Z,996.51
2018-04-11T00:33:25.571Z,996.49
2018-04-11T00:34:05.995Z,996.45
2018-04-11T00:34:46.331Z,996.46
2018-04-11T00:35:26.718Z,996.43
2018-04-11T00:36:07.113Z,996.42
2018-04-11T00:36:47.599Z,996.43
2018-04-11T00:37:27.923Z,996.42
2018-04-11T00:38:08.404Z,996.48
2018-04-11T00:38:48.801Z,996.46
2018-04-11T00:39:29.126Z,996.46
2018-04-11T00:40:09.565Z,996.45
2018-04-11T00:40:49.931Z,996.43
2018-04-11T00:41:30.336Z,996.4
2018-04-11T00:42:10.705Z,996.4
2018-04-11T00:42:51.062Z,996.41
2018-04-11T00:43:31.441Z,996.39
2018-04-11T00:44:11.864Z,996.35
2018-04-11T00:44:52.268Z,996.33
2018-04-11T00:45:32.657Z,996.31
2018-04-11T00:46:13.060Z,996.23
2018-04-11T00:46:53.494Z,996.23
2018-04-11T00:47:33.880Z,996.24
2018-04-11T00:48:14.301Z,996.26
2018-04-11T00:48:54.649Z,996.26
2018-04-11T00:49:35.035Z,996.28
2018-04-11T00:50:15.463Z,996.32
2018-04-11T00:50:55.905Z,996.31
2018-04-11T00:51:36.180Z,996.35
2018-04-11T00:52:16.609Z,996.4
2018-04-11T00:52:57.084Z,996.4
2018-04-11T00:53:37.411Z,996.43
2018-04-11T00:54:17.820Z,996.45
2018-04-11T00:54:58.171Z,996.45
2018-04-11T00:55:38.533Z,996.5
2018-04-11T00:56:18.970Z,996.5
2018-04-11T00:56:59.594Z,996.47
2018-04-11T00:57:39.725Z,996.46
2018-04-11T00:58:20.121Z,996.46
2018-04-11T00:59:00.521Z,996.44
2018-04-11T00:59:40.922Z,996.43
2018-04-11T01:00:21.375Z,996.43
2018-04-11T01:01:01.725Z,996.44
2018-04-11T01:01:42.202Z,996.49
2018-04-11T01:02:22.518Z,996.48
2018-04-11T01:03:02.899Z,996.49
2018-04-11T01:03:43.356Z,996.48
2018-04-11T01:04:23.684Z,996.51
2018-04-11T01:05:04.154Z,996.49
2018-04-11T01:05:44.502Z,996.52
2018-04-11T01:06:24.904Z,996.51
2018-04-11T01:07:05.304Z,996.49
2018-04-11T01:07:45.720Z,996.47
2018-04-11T01:08:26.161Z,996.47
2018-04-11T01:09:06.505Z,996.48
2018-04-11T01:09:46.950Z,996.49
2018-04-11T01:10:27.363Z,996.51
2018-04-11T01:11:07.709Z,996.53
2018-04-11T01:11:48.082Z,996.55
2018-04-11T01:12:28.521Z,996.58
2018-04-11T01:13:08.859Z,996.57
2018-04-11T01:13:49.251Z,996.57
2018-04-11T01:14:29.641Z,996.6
2018-04-11T01:15:10.161Z,996.58
2018-04-11T01:15:50.463Z,996.57
2018-04-11T01:16:30.845Z,996.57
2018-04-11T01:17:11.284Z,996.61
2018-04-11T01:17:51.655Z,996.63
2018-04-11T01:18:32.073Z,996.64
2018-04-11T01:19:12.432Z,996.64
2018-04-11T01:19:52.794Z,996.64
2018-04-11T01:20:33.240Z,996.65
2018-04-11T01:21:13.667Z,996.66
2018-04-11T01:21:54.294Z,996.64
2018-04-11T01:22:34.425Z,996.7
2018-04-11T01:23:14.824Z,996.7
2018-04-11T01:23:55.218Z,996.7
2018-04-11T01:24:35.552Z,996.75
2018-04-11T01:25:15.960Z,996.74
2018-04-11T01:25:56.326Z,996.72
2018-04-11T01:26:36.744Z,996.71
2018-04-11T01:27:17.143Z,996.73
2018-04-11T01:27:57.509Z,996.72
2018-04-11T01:28:37.880Z,996.73
2018-04-11T01:29:18.293Z,996.72
2018-04-11T01:29:58.670Z,996.73
2018-04-11T01:30:39.078Z,996.74
2018-04-11T01:31:19.463Z,996.76
2018-04-11T01:31:59.856Z,996.74
2018-04-11T01:32:40.297Z,996.75
2018-04-11T01:33:20.680Z,996.72
2018-04-11T01:34:01.081Z,996.74
2018-04-11T01:34:41.490Z,996.71
2018-04-11T01:35:21.843Z,996.76
2018-04-11T01:36:02.315Z,996.72
2018-04-11T01:36:42.632Z,996.71
2018-04-11T01:37:23.085Z,996.71
2018-04-11T01:38:03.437Z,996.75
2018-04-11T01:38:43.870Z,996.72
2018-04-11T01:39:24.255Z,996.69
2018-04-11T01:40:04.705Z,996.74
2018-04-11T01:40:45.041Z,996.78
2018-04-11T01:41:25.437Z,996.75
2018-04-11T01:42:05.828Z,996.75
2018-04-11T01:42:46.248Z,996.78
2018-04-11T01:43:27.011Z,996.78
2018-04-11T01:44:09.217Z,996.8
2018-04-11T01:44:50.189Z,996.85
2018-04-11T01:45:31.167Z,996.85
2018-04-11T01:46:11.582Z,996.9
2018-04-11T01:46:51.879Z,996.91
2018-04-11T01:47:32.464Z,996.97
2018-04-11T01:48:12.903Z,996.92
2018-04-11T01:48:53.754Z,996.95
2018-04-11T01:49:34.004Z,996.98
2018-04-11T01:50:14.470Z,996.99
2018-04-11T01:50:54.623Z,996.98
2018-04-11T01:51:35.535Z,997
2018-04-11T01:52:18.870Z,997.01
2018-04-11T01:53:02.968Z,997.02
2018-04-11T01:53:47.438Z,997.02
2018-04-11T01:54:27.663Z,997.01
2018-04-11T01:55:08.554Z,997.03
2018-04-11T01:55:49.025Z,997
2018-04-11T01:56:29.415Z,996.99
2018-04-11T01:57:09.735Z,996.96
2018-04-11T01:57:50.192Z,996.97
2018-04-11T01:58:30.595Z,996.93
2018-04-11T01:59:11.090Z,996.92
2018-04-11T01:59:51.391Z,996.9
2018-04-11T02:00:31.885Z,996.9
2018-04-11T02:01:15.272Z,996.88
2018-04-11T02:01:55.150Z,996.89
2018-04-11T02:02:36.542Z,996.93
2018-04-11T02:03:16.264Z,996.91
2018-04-11T02:03:56.700Z,996.92
2018-04-11T02:04:37.004Z,996.98
2018-04-11T02:05:17.572Z,997.01
2018-04-11T02:05:58.192Z,996.98
2018-04-11T02:06:38.571Z,997
2018-04-11T02:07:18.983Z,997.01
2018-04-11T02:07:59.447Z,997.02
2018-04-11T02:08:40.053Z,997
2018-04-11T02:09:20.213Z,996.99
2018-04-11T02:10:02.328Z,996.93
2018-04-11T02:10:42.774Z,996.96
2018-04-11T02:11:23.128Z,996.95
2018-04-11T02:12:03.530Z,996.93
2018-04-11T02:12:43.964Z,996.9
2018-04-11T02:13:24.369Z,996.91
2018-04-11T02:14:04.752Z,996.91
2018-04-11T02:14:45.121Z,996.89
2018-04-11T02:15:25.497Z,996.88
2018-04-11T02:16:05.920Z,996.87
2018-04-11T02:16:46.310Z,996.89
2018-04-11T02:17:26.723Z,996.86
2018-04-11T02:18:07.147Z,996.87
2018-04-11T02:18:47.492Z,996.84
2018-04-11T02:19:27.899Z,996.9
2018-04-11T02:20:08.339Z,996.89
2018-04-11T02:20:48.720Z,996.87
2018-04-11T02:21:29.168Z,996.87
2018-04-11T02:22:09.567Z,996.88
2018-04-11T02:22:49.927Z,996.9
2018-04-11T02:23:30.331Z,996.9
2018-04-11T02:24:10.703Z,996.88
2018-04-11T02:24:51.105Z,996.87
2018-04-11T02:25:31.504Z,996.93
2018-04-11T02:26:11.914Z,996.91
2018-04-11T02:26:52.301Z,996.94
2018-04-11T02:27:32.669Z,996.93
2018-04-11T02:28:13.111Z,996.95
2018-04-11T02:28:53.473Z,996.94
2018-04-11T02:29:33.895Z,996.98
2018-04-11T02:30:14.297Z,996.97
2018-04-11T02:30:54.927Z,996.97
2018-04-11T02:31:35.117Z,996.96
2018-04-11T02:32:15.526Z,996.98
2018-04-11T02:32:55.906Z,996.94
2018-04-11T02:33:36.330Z,996.95
2018-04-11T02:34:19.279Z,996.94
2018-04-11T02:34:58.233Z,996.89
2018-04-11T02:35:38.627Z,996.94
2018-04-11T02:36:18.985Z,996.89
2018-04-11T02:36:59.363Z,996.86
2018-04-11T02:37:39.753Z,996.85
2018-04-11T02:38:20.164Z,996.83
2018-04-11T02:39:00.604Z,996.77
2018-04-11T02:39:40.985Z,996.82
2018-04-11T02:40:21.395Z,996.8
2018-04-11T02:41:01.791Z,996.79
2018-04-11T02:41:42.225Z,996.8
2018-04-11T02:42:22.554Z,996.79
2018-04-11T02:43:02.967Z,996.77
2018-04-11T02:43:43.424Z,996.72
2018-04-11T02:44:23.787Z,996.72
2018-04-11T02:45:04.157Z,996.7
2018-04-11T02:45:44.547Z,996.74
2018-04-11T02:46:24.977Z,996.7
2018-04-11T02:47:05.383Z,996.74
2018-04-11T02:47:45.785Z,996.74
2018-04-11T02:48:26.157Z,996.71
2018-04-11T02:49:06.575Z,996.71
2018-04-11T02:49:46.963Z,996.73
2018-04-11T02:50:27.360Z,996.74
2018-04-11T02:51:07.721Z,996.74
2018-04-11T02:51:48.100Z,996.75
2018-04-11T02:52:28.521Z,996.76
2018-04-11T02:53:08.904Z,996.77
2018-04-11T02:53:49.350Z,996.72
2018-04-11T02:54:29.751Z,996.75
2018-04-11T02:55:10.158Z,996.71
2018-04-11T02:55:50.546Z,996.72
2018-04-11T02:56:30.938Z,996.73
2018-04-11T02:57:11.346Z,996.71
2018-04-11T02:57:51.802Z,996.71
2018-04-11T02:58:32.188Z,996.68
2018-04-11T02:59:12.542Z,996.71
2018-04-11T02:59:52.981Z,996.71
2018-04-11T03:00:33.349Z,996.72
2018-04-11T03:01:13.844Z,996.7
2018-04-11T03:01:54.231Z,996.67
2018-04-11T03:02:34.615Z,996.67
2018-04-11T03:03:15.016Z,996.65
2018-04-11T03:03:55.431Z,996.65
2018-04-11T03:04:35.830Z,996.66
2018-04-11T03:05:16.287Z,996.68
2018-04-11T03:05:56.691Z,996.66
2018-04-11T03:06:37.132Z,996.7
2018-04-11T03:07:17.541Z,996.66
2018-04-11T03:07:57.947Z,996.7
2018-04-11T03:08:38.375Z,996.69
2018-04-11T03:09:18.797Z,996.66
2018-04-11T03:09:59.196Z,996.68
2018-04-11T03:10:39.572Z,996.67
2018-04-11T03:11:19.969Z,996.67
2018-04-11T03:12:00.365Z,996.66
2018-04-11T03:12:40.781Z,996.67
2018-04-11T03:13:21.200Z,996.64
2018-04-11T03:14:01.627Z,996.65
2018-04-11T03:14:42.071Z,996.62
2018-04-11T03:15:22.462Z,996.63
2018-04-11T03:16:02.812Z,996.61
2018-04-11T03:16:43.226Z,996.56
2018-04-11T03:17:23.628Z,996.55
2018-04-11T03:18:04.069Z,996.56
2018-04-11T03:18:44.459Z,996.54
2018-04-11T03:19:24.881Z,996.53
2018-04-11T03:20:05.329Z,996.51
2018-04-11T03:20:45.696Z,996.54
2018-04-11T03:21:26.072Z,996.54
2018-04-11T03:22:06.459Z,996.51
2018-04-11T03:22:46.885Z,996.57
2018-04-11T03:23:27.299Z,996.58
2018-04-11T03:24:07.720Z,996.61
2018-04-11T03:24:48.147Z,996.62
2018-04-11T03:25:28.525Z,996.58
2018-04-11T03:26:09.008Z,996.58
2018-04-11T03:26:49.347Z,996.6
2018-04-11T03:27:29.744Z,996.58
2018-04-11T03:29:29.145Z,996.6
2018-04-11T03:30:15.231Z,996.59
2018-04-11T03:30:53.765Z,996.61
2018-04-11T03:31:34.180Z,996.61
2018-04-11T03:32:14.610Z,996.6
2018-04-11T03:32:55.056Z,996.66
2018-04-11T03:33:35.436Z,996.65
2018-04-11T03:34:15.834Z,996.65
2018-04-11T03:34:56.243Z,996.69
2018-04-11T03:35:36.608Z,996.69
2018-04-11T03:36:17.050Z,996.69
2018-04-11T03:36:57.441Z,996.68
2018-04-11T03:37:37.813Z,996.75
2018-04-11T03:38:18.282Z,996.72
2018-04-11T03:38:58.668Z,996.74
2018-04-11T03:39:39.038Z,996.71
2018-04-11T03:40:19.452Z,996.73
2018-04-11T03:40:59.837Z,996.68
2018-04-11T03:41:40.218Z,996.65
2018-04-11T03:42:20.656Z,996.63
2018-04-11T03:43:01.080Z,996.63
2018-04-11T03:43:41.443Z,996.62
2018-04-11T03:44:21.865Z,996.63
2018-04-11T03:45:02.230Z,996.6
2018-04-11T03:45:42.632Z,996.6
2018-04-11T03:46:23.080Z,996.58
2018-04-11T03:47:03.464Z,996.59
2018-04-11T03:47:43.832Z,996.6
2018-04-11T03:48:24.233Z,996.6
2018-04-11T03:49:04.632Z,996.59
2018-04-11T03:49:45.082Z,996.56
2018-04-11T03:50:25.434Z,996.58
2018-04-11T03:51:05.831Z,996.55
2018-04-11T03:51:46.282Z,996.56
2018-04-11T03:52:26.663Z,996.56
2018-04-11T03:53:07.068Z,996.54
2018-04-11T03:53:47.477Z,996.55
2018-04-11T03:54:27.846Z,996.55
2018-04-11T03:55:08.270Z,996.59
2018-04-11T03:55:48.662Z,996.56
2018-04-11T03:56:29.042Z,996.57
2018-04-11T03:57:09.438Z,996.57
2018-04-11T03:57:49.844Z,996.58
2018-04-11T03:58:30.286Z,996.59
2018-04-11T03:59:10.646Z,996.63
2018-04-11T03:59:51.116Z,996.6
2018-04-11T04:00:31.528Z,996.63
2018-04-11T04:01:11.873Z,996.64
2018-04-11T04:41:37.148Z,996.57
2018-04-11T04:42:16.668Z,996.57
2018-04-11T04:42:57.121Z,996.59
2018-04-11T04:43:37.547Z,996.64
2018-04-11T04:44:17.956Z,996.61
2018-04-11T04:44:58.313Z,996.65
2018-04-11T04:45:38.753Z,996.69
2018-04-11T04:46:19.117Z,996.67
2018-04-11T04:46:59.583Z,996.67
2018-04-11T04:47:39.976Z,996.7
2018-04-11T04:48:20.362Z,996.7
2018-04-11T04:49:00.746Z,996.71
2018-04-11T04:49:41.170Z,996.71
2018-04-11T04:50:21.546Z,996.69
2018-04-11T04:51:01.961Z,996.71
2018-04-11T04:51:42.411Z,996.68
2018-04-11T04:52:22.859Z,996.69
2018-04-11T04:53:03.194Z,996.71
2018-04-11T04:53:43.611Z,996.67
2018-04-11T04:54:24.054Z,996.67
2018-04-11T04:55:04.481Z,996.65
2018-04-11T04:55:44.837Z,996.7
2018-04-11T04:56:25.236Z,996.69
2018-04-11T04:57:05.730Z,996.71
2018-04-11T04:57:46.036Z,996.75
2018-04-11T04:58:26.598Z,996.75
2018-04-11T04:59:07.018Z,996.75
2018-04-11T04:59:47.408Z,996.74
2018-04-11T05:00:27.849Z,996.75
2018-04-11T05:01:08.170Z,996.77
2018-04-11T05:01:50.242Z,996.77
2018-04-11T05:02:30.319Z,996.78
2018-04-11T05:03:11.599Z,996.8
2018-04-11T05:03:52.068Z,996.78
2018-04-11T05:04:32.798Z,996.76
2018-04-11T05:05:13.274Z,996.76
2018-04-11T05:05:53.748Z,996.72
2018-04-11T05:06:34.172Z,996.8
2018-04-11T05:07:15.498Z,996.76
2018-04-11T05:07:56.353Z,996.8
2018-04-11T05:08:36.771Z,996.75
2018-04-11T05:09:18.019Z,996.76
2018-04-11T05:09:58.906Z,996.76
2018-04-11T05:10:39.408Z,996.76
2018-04-11T05:11:19.904Z,996.75
2018-04-11T05:12:00.401Z,996.73
2018-04-11T05:12:40.769Z,996.77
2018-04-11T05:13:21.779Z,996.72
2018-04-11T05:14:02.398Z,996.76
2018-04-11T05:14:42.773Z,996.77
2018-04-11T05:15:23.218Z,996.71
2018-04-11T05:16:03.598Z,996.72
2018-04-11T05:16:44.076Z,996.74
2018-04-11T05:17:25.783Z,996.77
2018-04-11T05:18:05.404Z,996.78
2018-04-11T05:18:47.690Z,996.76
2018-04-11T05:19:28.152Z,996.79
2018-04-11T05:20:08.531Z,996.81
2018-04-11T05:20:48.908Z,996.79
2018-04-11T05:21:29.375Z,996.81
2018-04-11T05:22:09.727Z,996.79
2018-04-11T05:22:50.172Z,996.79
2018-04-11T05:23:30.561Z,996.77
2018-04-11T05:24:10.989Z,996.74
2018-04-11T05:24:51.435Z,996.75
2018-04-11T05:25:31.800Z,996.76
2018-04-11T05:26:12.204Z,996.79
2018-04-11T05:26:52.706Z,996.79
2018-04-11T05:27:33.025Z,996.79
2018-04-11T05:28:13.419Z,996.84
2018-04-11T05:28:53.839Z,996.9
2018-04-11T05:29:34.219Z,996.86
2018-04-11T05:30:14.619Z,996.9
2018-04-11T05:30:54.978Z,996.96
2018-04-11T05:31:35.390Z,996.93
2018-04-11T05:32:15.821Z,996.95
2018-04-11T05:32:56.205Z,996.95
2018-04-11T05:33:36.591Z,996.91
2018-04-11T05:34:17.016Z,996.99
2018-04-11T05:34:57.384Z,996.93
2018-04-11T05:35:37.855Z,996.96
2018-04-11T05:36:18.394Z,996.93
2018-04-11T05:36:58.723Z,996.98
2018-04-11T05:37:39.131Z,996.99
2018-04-11T05:38:19.525Z,996.99
2018-04-11T05:38:59.913Z,997.05
2018-04-11T05:39:40.337Z,997.07
2018-04-11T05:40:21.685Z,997.14
2018-04-11T05:41:01.879Z,997.16
2018-04-11T05:41:42.225Z,997.16
2018-04-11T05:42:22.746Z,997.21
2018-04-11T05:43:03.106Z,997.22
2018-04-11T05:43:43.487Z,997.25
2018-04-11T05:44:23.974Z,997.24
2018-04-11T05:45:04.488Z,997.25
2018-04-11T05:45:44.937Z,997.33
2018-04-11T05:46:25.325Z,997.36
2018-04-11T05:47:05.750Z,997.4
2018-04-11T05:47:46.215Z,997.4
2018-04-11T05:48:26.659Z,997.41
2018-04-11T05:49:07.075Z,997.46
2018-04-11T05:49:47.446Z,997.4
2018-04-11T05:50:28.104Z,997.48
2018-04-11T05:51:08.515Z,997.5
2018-04-11T05:51:48.856Z,997.45
2018-04-11T05:52:29.448Z,997.44
2018-04-11T05:53:09.977Z,997.46
2018-04-11T05:53:50.735Z,997.48
2018-04-11T05:54:31.119Z,997.45
2018-04-11T05:55:11.585Z,997.46
2018-04-11T05:55:52.029Z,997.46
2018-04-11T05:56:32.447Z,997.45
2018-04-11T05:57:13.052Z,997.47
2018-04-11T05:57:53.403Z,997.48
2018-04-11T05:58:33.814Z,997.45
2018-04-11T05:59:14.506Z,997.44
2018-04-11T05:59:55.044Z,997.43
2018-04-11T06:00:35.516Z,997.43
2018-04-11T06:01:16.438Z,997.37
2018-04-11T06:01:57.168Z,997.32
2018-04-11T06:02:38.241Z,997.34
2018-04-11T06:03:18.610Z,997.29
2018-04-11T06:03:58.980Z,997.24
2018-04-11T06:04:39.421Z,997.21
2018-04-11T06:05:22.060Z,997.23
2018-04-11T06:06:08.733Z,997.17
2018-04-11T06:06:52.065Z,997.13
2018-04-11T06:07:32.741Z,997.1
2018-04-11T06:08:15.284Z,997.13
2018-04-11T06:08:56.013Z,997.1
2018-04-11T06:09:35.657Z,997.13
2018-04-11T06:10:16.312Z,997.09
2018-04-11T06:10:57.336Z,997.04
2018-04-11T06:16:32.838Z,997.04
2018-04-11T06:18:31.531Z,997.09
2018-04-11T06:22:47.038Z,997.15
2018-04-11T06:28:57.138Z,997.16
2018-04-11T06:53:41.614Z,997.13
2018-04-11T07:04:57.935Z,997.23
2018-04-11T07:09:03.969Z,997.22
2018-04-11T07:15:40.356Z,997.49
2018-04-11T07:17:37.665Z,997.48
2018-04-11T07:23:19.586Z,997.29
2018-04-11T07:34:12.463Z,997.41
2018-04-11T07:49:22.508Z,997.67
2018-04-11T07:55:07.809Z,997.77
2018-04-11T08:02:45.634Z,997.93
2018-04-11T08:04:47.232Z,997.95
2018-04-11T08:06:44.296Z,997.98
2018-04-11T08:09:49.491Z,997.91
2018-04-11T08:31:51.171Z,998
2018-04-11T08:42:00.721Z,997.87
2018-04-11T08:48:59.000Z,997.95
2018-04-11T08:49:39.755Z,997.92
2018-04-11T08:50:20.172Z,997.93
2018-04-11T08:51:01.418Z,997.95
2018-04-11T08:51:41.896Z,997.97
2018-04-11T08:52:22.719Z,997.92
2018-04-11T08:53:03.210Z,997.96
2018-04-11T08:53:44.691Z,997.95
2018-04-11T08:54:24.683Z,997.99
2018-04-11T08:55:05.446Z,997.95
2018-04-11T08:55:46.535Z,997.94
2018-04-11T08:56:27.480Z,997.96
2018-04-11T08:57:07.931Z,997.93
2018-04-11T08:57:49.697Z,997.92
2018-04-11T08:58:29.556Z,997.92
2018-04-11T08:59:10.289Z,997.93
2018-04-11T08:59:50.590Z,997.9
2018-04-11T09:00:31.315Z,997.9
2018-04-11T09:01:11.782Z,997.93
2018-04-11T09:01:52.517Z,997.91
2018-04-11T09:02:33.296Z,997.89
2018-04-11T09:03:13.829Z,997.91
2018-04-11T09:03:54.306Z,997.91
2018-04-11T09:04:35.827Z,997.93
2018-04-11T09:05:15.395Z,997.93
2018-04-11T09:05:55.929Z,997.96
2018-04-11T09:06:36.375Z,997.94
2018-04-11T09:07:17.101Z,997.97
2018-04-11T09:07:57.542Z,997.94
2018-04-11T09:08:37.997Z,997.96
2018-04-11T09:09:18.388Z,997.96
2018-04-11T09:09:58.803Z,997.99
2018-04-11T09:10:40.139Z,997.96
2018-04-11T09:11:20.483Z,998
2018-04-11T09:12:00.892Z,998
2018-04-11T09:12:41.406Z,998.03
2018-04-11T09:13:21.885Z,997.99
2018-04-11T09:14:02.318Z,998.04
2018-04-11T09:14:42.635Z,998.07
2018-04-11T09:15:23.068Z,998.03
2018-04-11T09:16:03.869Z,997.99
2018-04-11T09:16:44.367Z,997.99
2018-04-11T09:17:24.656Z,998.03
2018-04-11T09:18:05.192Z,998.01
2018-04-11T09:18:45.652Z,997.98
2018-04-11T09:19:26.177Z,997.98
2018-04-11T09:20:06.534Z,997.95
2018-04-11T09:20:47.104Z,997.99
2018-04-11T09:21:27.492Z,998.02
2018-04-11T09:22:08.348Z,998
2018-04-11T09:22:48.842Z,997.96
2018-04-11T09:23:29.433Z,998.01
2018-04-11T09:24:10.381Z,997.97
2018-04-11T09:24:51.234Z,998
2018-04-11T09:25:32.559Z,997.99
2018-04-11T09:26:12.839Z,997.96
2018-04-11T09:26:53.352Z,997.94
2018-04-11T09:27:33.752Z,997.94
2018-04-11T09:28:14.189Z,997.92
2018-04-11T09:28:55.589Z,997.9
2018-04-11T09:29:36.681Z,997.95
2018-04-11T09:30:17.104Z,997.92
2018-04-11T09:30:57.788Z,997.95
2018-04-11T09:31:38.140Z,997.94
2018-04-11T09:32:18.651Z,997.96
2018-04-11T09:32:59.340Z,997.98
2018-04-11T09:33:39.525Z,997.99
2018-04-11T09:34:20.218Z,997.96
2018-04-11T09:35:00.614Z,997.98
2018-04-11T09:35:41.047Z,997.99
2018-04-11T09:36:21.766Z,998.02
2018-04-11T09:37:02.354Z,998.02
2018-04-11T09:37:42.780Z,998.02
2018-04-11T09:38:23.445Z,998.03
2018-04-11T09:39:04.100Z,998
2018-04-11T09:39:44.792Z,998.03
2018-04-11T09:40:25.240Z,998.03
2018-04-11T09:41:06.680Z,998.05
2018-04-11T09:41:46.488Z,998.01
2018-04-11T09:42:26.911Z,998.06
2018-04-11T09:43:07.452Z,998.06
2018-04-11T09:43:47.835Z,998.05
2018-04-11T09:44:28.453Z,998.02
2018-04-11T09:45:08.936Z,998.02
2018-04-11T09:45:49.444Z,998.02
2018-04-11T09:46:30.943Z,998.05
2018-04-11T09:47:11.503Z,998.01
2018-04-11T09:47:51.910Z,998.02
2018-04-11T09:48:32.997Z,998.01
2018-04-11T09:49:13.948Z,998.03
2018-04-11T09:49:54.570Z,998.01
2018-04-11T09:50:35.109Z,998.01
2018-04-11T09:51:15.446Z,998.01
2018-04-11T09:51:55.961Z,997.99
2018-04-11T09:52:36.384Z,997.99
2018-04-11T09:53:16.801Z,997.98
2018-04-11T09:53:57.242Z,997.96
2018-04-11T09:54:37.788Z,997.96
2018-04-11T09:55:18.099Z,997.97
2018-04-11T09:55:58.629Z,997.97
2018-04-11T09:56:39.093Z,997.99
2018-04-11T09:57:19.732Z,998
2018-04-11T09:58:00.284Z,998.01
2018-04-11T09:58:40.879Z,997.96
2018-04-11T09:59:21.321Z,998.01
2018-04-11T10:00:01.728Z,998.02
2018-04-11T10:00:42.134Z,998.05
2018-04-11T10:01:22.682Z,998.01
2018-04-11T10:02:03.311Z,998.02
2018-04-11T10:02:45.357Z,997.97
2018-04-11T10:43:53.393Z,997.93
2018-04-11T10:44:33.927Z,997.94
2018-04-11T10:45:14.673Z,997.87
2018-04-11T10:45:55.480Z,997.95
2018-04-11T10:46:36.605Z,997.92
2018-04-11T10:47:17.001Z,997.95
2018-04-11T10:47:57.745Z,997.94
2018-04-11T10:48:39.412Z,997.93
2018-04-11T10:49:19.757Z,997.91
2018-04-11T10:50:00.321Z,997.96
2018-04-11T10:50:41.035Z,997.92
2018-04-11T10:52:56.220Z,997.96
2018-04-11T10:53:36.909Z,997.97
2018-04-11T10:54:17.338Z,997.99
2018-04-11T10:54:58.093Z,997.94
2018-04-11T10:55:38.456Z,997.94
2018-04-11T10:56:18.879Z,997.95
2018-04-11T10:56:59.363Z,997.94
2018-04-11T10:57:39.772Z,997.92
2018-04-11T10:58:20.133Z,997.96
2018-04-11T10:59:00.654Z,997.98
2018-04-11T10:59:41.118Z,997.9
2018-04-11T11:00:21.688Z,997.9
2018-04-11T11:01:02.135Z,997.93
2018-04-11T11:01:42.549Z,997.95
2018-04-11T11:02:22.969Z,997.93
2018-04-11T11:03:03.584Z,997.95
2018-04-11T11:03:44.127Z,997.94
2018-04-11T11:04:24.787Z,997.92
2018-04-11T11:05:05.216Z,997.94
2018-04-11T11:05:45.770Z,997.91
2018-04-11T11:06:26.164Z,997.92
2018-04-11T11:07:06.768Z,997.94
2018-04-11T11:07:47.290Z,997.92
2018-04-11T11:08:27.686Z,997.91
2018-04-11T11:09:08.141Z,997.91
2018-04-11T11:09:48.651Z,997.91
2018-04-11T11:10:29.240Z,997.9
2018-04-11T11:11:09.653Z,997.95
2018-04-11T11:11:50.076Z,997.95
2018-04-11T11:12:30.470Z,997.92
2018-04-11T11:13:10.953Z,997.93
2018-04-11T11:13:51.363Z,997.9
2018-04-11T11:14:31.714Z,997.96
2018-04-11T11:15:12.231Z,997.95
2018-04-11T11:15:52.646Z,997.92
2018-04-11T11:16:33.104Z,997.98
2018-04-11T11:17:13.513Z,997.93
2018-04-11T11:17:53.961Z,997.94
2018-04-11T11:18:34.592Z,997.96
2018-04-11T11:19:15.018Z,997.95
2018-04-11T11:19:55.440Z,997.94
2018-04-11T11:20:35.830Z,997.92
2018-04-11T11:21:16.253Z,997.93
2018-04-11T11:21:56.742Z,997.96
2018-04-11T11:22:37.107Z,997.93
2018-04-11T11:23:17.595Z,997.89
2018-04-11T11:23:58.038Z,997.92
2018-04-11T11:24:38.382Z,997.93
2018-04-11T11:25:18.816Z,997.92
2018-04-11T11:25:59.236Z,997.93
2018-04-11T11:26:39.595Z,997.88
2018-04-11T11:27:20.047Z,997.93
2018-04-11T11:28:00.464Z,997.92
2018-04-11T11:28:40.859Z,997.91
2018-04-11T11:29:22.737Z,997.91
2018-04-11T11:30:02.039Z,997.91
2018-04-11T11:30:42.566Z,997.9
2018-04-11T11:32:44.385Z,997.85
2018-04-11T11:35:54.387Z,997.88
2018-04-11T11:36:43.620Z,997.87
2018-04-11T11:37:21.983Z,997.85
2018-04-11T11:38:02.728Z,997.87
2018-04-11T11:38:43.711Z,997.84
2018-04-11T11:39:24.145Z,997.83
2018-04-11T11:40:04.519Z,997.79
2018-04-11T11:40:45.031Z,997.77
2018-04-11T11:41:25.448Z,997.77
2018-04-11T11:42:05.852Z,997.75
2018-04-11T11:42:46.222Z,997.82
2018-04-11T11:43:26.673Z,997.76
2018-04-11T11:44:08.274Z,997.76
2018-04-11T11:44:48.771Z,997.79
2018-04-11T11:45:29.280Z,997.78
2018-04-11T11:46:11.439Z,997.76
2018-04-11T11:46:53.693Z,997.72
2018-04-11T11:47:34.119Z,997.71
2018-04-11T11:48:14.525Z,997.71
2018-04-11T11:50:17.757Z,997.72
2018-04-11T11:52:41.535Z,997.7
2018-04-11T11:55:02.579Z,997.71
2018-04-11T11:55:53.168Z,997.68
2018-04-11T11:56:45.143Z,997.61
2018-04-11T11:57:33.713Z,997.68
2018-04-11T11:58:24.399Z,997.64
2018-04-11T11:59:11.341Z,997.63
2018-04-11T11:59:59.423Z,997.63
2018-04-11T12:00:42.520Z,997.63
2018-04-11T12:01:22.966Z,997.62
2018-04-11T12:02:03.472Z,997.63
2018-04-11T12:02:43.840Z,997.61
2018-04-11T12:03:24.284Z,997.61
2018-04-11T12:04:04.673Z,997.59
2018-04-11T12:04:45.103Z,997.61
2018-04-11T12:05:25.512Z,997.61
2018-04-11T12:07:21.822Z,997.61
2018-04-11T12:08:10.401Z,997.55
2018-04-11T12:08:53.108Z,997.58
2018-04-11T12:09:33.512Z,997.58
2018-04-11T12:10:13.940Z,997.59
2018-04-11T12:10:54.292Z,997.61
2018-04-11T12:11:34.710Z,997.6
2018-04-11T12:12:15.149Z,997.59
2018-04-11T12:12:55.602Z,997.55
2018-04-11T12:13:36.004Z,997.59
2018-04-11T12:14:16.446Z,997.58
2018-04-11T12:14:56.866Z,997.58
2018-04-11T12:15:37.291Z,997.55
2018-04-11T12:16:17.668Z,997.62
2018-04-11T12:16:58.143Z,997.59
2018-04-11T12:17:38.527Z,997.57
2018-04-11T12:18:18.998Z,997.56
2018-04-11T12:18:59.366Z,997.57
2018-04-11T12:19:39.784Z,997.54
2018-04-11T12:20:20.200Z,997.58
2018-04-11T12:21:00.590Z,997.59
2018-04-11T12:21:40.999Z,997.56
2018-04-11T12:22:21.384Z,997.56
2018-04-11T12:23:01.864Z,997.55
2018-04-11T12:23:42.196Z,997.55
2018-04-11T12:24:22.604Z,997.57
2018-04-11T12:25:03.042Z,997.58
2018-04-11T12:25:43.468Z,997.57
2018-04-11T12:28:02.442Z,997.6